createdAt,value
2018-05-31T00:01:42.672Z,5.20
2018-05-31T00:04:10.069Z,4.40
2018-05-31T00:06:45.585Z,5.30
2018-05-31T00:09:13.809Z,5.13
2018-05-31T00:11:41.193Z,6.57
2018-05-31T00:14:11.050Z,5.33
2018-05-31T00:16:38.439Z,4.87
2018-05-31T00:19:05.851Z,4.60
2018-05-31T00:21:35.896Z,5.80
2018-05-31T00:24:06.318Z,5.00
2018-05-31T00:26:35.409Z,5.03
2018-05-31T00:29:03.533Z,5.07
2018-05-31T00:31:32.733Z,4.63
2018-05-31T00:34:00.850Z,5.13
2018-05-31T00:36:29.817Z,5.23
2018-05-31T00:39:01.115Z,5.47
2018-05-31T00:41:29.295Z,5.23
2018-05-31T00:43:57.502Z,4.70
2018-05-31T00:46:25.224Z,5.07
2018-05-31T00:48:53.124Z,5.50
2018-05-31T00:51:21.136Z,5.37
2018-05-31T00:53:50.503Z,5.33
2018-05-31T00:56:19.645Z,5.70
2018-05-31T00:58:47.829Z,4.80
2018-05-31T01:01:16.182Z,5.20
2018-05-31T01:03:44.693Z,6.13
2018-05-31T01:06:12.395Z,5.50
2018-05-31T01:08:42.482Z,5.10
2018-05-31T01:11:10.341Z,5.20
2018-05-31T01:13:39.084Z,5.30
2018-05-31T01:16:06.467Z,5.50
2018-05-31T01:18:34.729Z,5.53
2018-05-31T01:21:02.129Z,5.63
2018-05-31T01:23:30.777Z,5.87
2018-05-31T01:25:58.963Z,5.10
2018-05-31T01:28:26.392Z,5.23
2018-05-31T01:30:54.430Z,5.70
2018-05-31T01:33:21.833Z,5.33
2018-05-31T01:35:49.231Z,4.83
2018-05-31T01:38:29.954Z,5.90
2018-05-31T01:41:01.510Z,6.27
2018-05-31T01:43:28.941Z,5.40
2018-05-31T01:45:56.323Z,5.37
2018-05-31T01:48:23.710Z,5.10
2018-05-31T01:50:51.084Z,5.73
2018-05-31T01:53:18.482Z,4.70
2018-05-31T01:55:45.859Z,5.03
2018-05-31T01:58:13.252Z,5.23
2018-05-31T02:00:40.644Z,4.87
2018-05-31T02:03:08.036Z,5.60
2018-05-31T02:05:35.431Z,4.77
2018-05-31T02:08:02.820Z,4.50
2018-05-31T02:10:30.209Z,5.27
2018-05-31T02:12:57.591Z,4.10
2018-05-31T02:15:24.970Z,4.87
2018-05-31T02:17:52.375Z,5.53
2018-05-31T02:20:19.750Z,5.30
2018-05-31T02:22:47.141Z,5.83
2018-05-31T02:25:14.632Z,4.63
2018-05-31T02:27:42.017Z,4.80
2018-05-31T02:30:09.397Z,4.90
2018-05-31T02:32:36.792Z,4.57
2018-05-31T02:35:04.172Z,4.97
2018-05-31T02:37:31.550Z,5.27
2018-05-31T02:39:58.940Z,5.10
2018-05-31T02:42:26.310Z,4.63
2018-05-31T02:44:53.705Z,4.93
2018-05-31T02:47:21.104Z,4.40
2018-05-31T02:49:48.489Z,4.97
2018-05-31T02:52:15.867Z,4.30
2018-05-31T02:54:43.259Z,4.77
2018-05-31T02:57:10.637Z,5.30
2018-05-31T02:59:38.023Z,4.43
2018-05-31T03:02:05.407Z,3.80
2018-05-31T03:04:32.797Z,4.10
2018-05-31T03:07:00.176Z,3.87
2018-05-31T03:09:27.571Z,3.80
2018-05-31T03:11:54.947Z,4.30
2018-05-31T03:14:22.340Z,3.67
2018-05-31T03:16:49.715Z,4.17
2018-05-31T03:19:17.095Z,4.47
2018-05-31T03:21:44.482Z,3.40
2018-05-31T03:24:11.895Z,4.40
2018-05-31T03:26:39.279Z,3.77
2018-05-31T03:29:06.672Z,4.10
2018-05-31T03:31:34.058Z,4.00
2018-05-31T03:34:01.446Z,3.70
2018-05-31T03:36:28.819Z,3.63
2018-05-31T03:38:56.232Z,4.00
2018-05-31T03:41:23.616Z,4.47
2018-05-31T03:43:51.009Z,4.77
2018-05-31T03:46:18.382Z,3.50
2018-05-31T03:48:45.767Z,4.63
2018-05-31T03:51:13.145Z,4.77
2018-05-31T03:53:40.523Z,4.77
2018-05-31T03:56:07.915Z,3.83
2018-05-31T03:58:35.301Z,4.03
2018-05-31T04:01:02.687Z,3.90
2018-05-31T04:03:30.100Z,3.20
2018-05-31T04:05:57.479Z,4.20
2018-05-31T04:08:24.865Z,3.97
2018-05-31T04:10:52.247Z,4.03
2018-05-31T04:13:19.648Z,3.80
2018-05-31T04:15:47.037Z,3.67
2018-05-31T04:18:14.443Z,3.37
2018-05-31T04:20:41.832Z,4.40
2018-05-31T04:23:09.224Z,3.33
2018-05-31T04:25:36.612Z,3.77
2018-05-31T04:28:03.995Z,3.27
2018-05-31T04:30:31.377Z,3.27
2018-05-31T04:32:58.763Z,3.90
2018-05-31T04:35:26.158Z,3.90
2018-05-31T04:37:53.536Z,3.40
2018-05-31T04:40:20.946Z,4.30
2018-05-31T04:42:48.349Z,3.80
2018-05-31T04:45:15.726Z,3.70
2018-05-31T04:47:43.110Z,3.73
2018-05-31T04:50:10.501Z,4.50
2018-05-31T04:52:37.888Z,4.50
2018-05-31T04:55:05.272Z,4.63
2018-05-31T04:57:32.660Z,4.17
2018-05-31T05:00:00.238Z,4.30
2018-05-31T05:02:27.608Z,3.63
2018-05-31T05:04:55.025Z,4.00
2018-05-31T05:07:22.403Z,4.00
2018-05-31T05:09:49.791Z,4.47
2018-05-31T05:12:17.171Z,4.10
2018-05-31T05:14:44.571Z,4.23
2018-05-31T05:17:11.947Z,5.10
2018-05-31T05:19:39.329Z,5.07
2018-05-31T05:22:06.704Z,4.37
2018-05-31T05:24:34.095Z,4.27
2018-05-31T05:27:01.474Z,5.13
2018-05-31T05:29:28.863Z,4.50
2018-05-31T05:31:56.255Z,5.20
2018-05-31T05:34:23.632Z,5.00
2018-05-31T05:36:51.025Z,5.73
2018-05-31T05:39:19.104Z,4.90
2018-05-31T05:41:46.501Z,4.53
2018-05-31T05:44:13.894Z,4.90
2018-05-31T05:46:41.280Z,4.40
2018-05-31T05:49:08.655Z,4.70
2018-05-31T05:51:36.049Z,4.17
2018-05-31T05:54:03.433Z,4.60
2018-05-31T05:56:30.828Z,4.30
2018-05-31T05:58:58.236Z,4.13
2018-05-31T06:01:25.632Z,4.23
2018-05-31T06:03:53.011Z,3.83
2018-05-31T06:06:20.401Z,4.47
2018-05-31T06:08:47.783Z,3.93
2018-05-31T06:11:15.187Z,4.10
2018-05-31T06:13:42.574Z,3.57
2018-05-31T06:16:09.951Z,3.80
2018-05-31T06:18:37.334Z,3.93
2018-05-31T06:21:04.722Z,4.47
2018-05-31T06:23:32.110Z,3.60
2018-05-31T06:25:59.489Z,4.50
2018-05-31T06:28:26.875Z,4.13
2018-05-31T06:30:54.249Z,4.63
2018-05-31T06:33:21.626Z,4.47
2018-05-31T06:35:49.038Z,3.70
2018-05-31T06:38:16.460Z,4.20
2018-05-31T06:40:43.795Z,4.90
2018-05-31T06:43:11.190Z,4.57
2018-05-31T06:45:38.581Z,5.30
2018-05-31T06:48:05.955Z,3.60
2018-05-31T06:50:33.340Z,4.67
2018-05-31T06:53:00.720Z,3.57
2018-05-31T06:55:28.112Z,3.50
2018-05-31T06:57:55.506Z,3.40
2018-05-31T07:00:22.910Z,3.30
2018-05-31T07:02:50.281Z,3.70
2018-05-31T07:05:17.671Z,3.50
2018-05-31T07:07:45.056Z,4.20
2018-05-31T07:10:12.438Z,3.60
2018-05-31T07:12:39.828Z,3.57
2018-05-31T07:15:07.212Z,3.80
2018-05-31T07:17:34.591Z,3.83
2018-05-31T07:20:01.975Z,4.17
2018-05-31T07:22:29.370Z,3.70
2018-05-31T07:24:56.765Z,4.33
2018-05-31T07:27:24.133Z,4.10
2018-05-31T07:29:51.528Z,4.80
2018-05-31T07:32:18.938Z,4.40
2018-05-31T07:34:46.308Z,4.20
2018-05-31T07:37:13.671Z,4.43
2018-05-31T07:39:41.083Z,4.53
2018-05-31T07:42:08.462Z,4.13
2018-05-31T07:44:35.862Z,4.30
2018-05-31T07:47:03.250Z,4.50
2018-05-31T07:49:30.644Z,4.53
2018-05-31T07:51:58.033Z,4.30
2018-05-31T07:54:25.474Z,4.20
2018-05-31T07:56:52.827Z,4.10
2018-05-31T07:59:20.221Z,5.30
2018-05-31T08:01:47.603Z,4.67
2018-05-31T08:04:14.998Z,3.90
2018-05-31T08:06:42.398Z,4.43
2018-05-31T08:09:09.791Z,4.40
2018-05-31T08:11:37.172Z,5.27
2018-05-31T08:14:04.569Z,5.27
2018-05-31T08:16:31.951Z,4.17
2018-05-31T08:18:59.361Z,4.30
2018-05-31T08:21:26.736Z,5.33
2018-05-31T08:23:54.125Z,4.97
2018-05-31T08:26:21.509Z,3.90
2018-05-31T08:28:48.893Z,4.30
2018-05-31T08:31:16.274Z,4.60
2018-05-31T08:33:43.658Z,3.90
2018-05-31T08:36:11.060Z,4.97
2018-05-31T08:38:38.442Z,4.57
2018-05-31T08:41:05.824Z,5.20
2018-05-31T08:43:33.203Z,4.40
2018-05-31T08:46:01.960Z,4.80
2018-05-31T08:48:29.333Z,5.20
2018-05-31T08:50:56.747Z,4.93
2018-05-31T08:53:24.108Z,4.90
2018-05-31T08:55:51.527Z,4.97
2018-05-31T08:58:18.895Z,5.10
2018-05-31T09:00:46.279Z,5.33
2018-05-31T09:03:13.756Z,5.17
2018-05-31T09:05:41.127Z,5.23
2018-05-31T09:08:08.512Z,5.57
2018-05-31T09:10:35.907Z,5.40
2018-05-31T09:13:03.295Z,4.90
2018-05-31T09:15:30.683Z,5.27
2018-05-31T09:17:58.075Z,5.60
2018-05-31T09:20:25.456Z,5.23
2018-05-31T09:22:52.850Z,5.07
2018-05-31T09:25:20.231Z,6.47
2018-05-31T09:27:47.612Z,5.30
2018-05-31T09:30:14.999Z,5.63
2018-05-31T09:32:42.380Z,5.47
2018-05-31T09:35:09.798Z,5.60
2018-05-31T09:37:37.179Z,6.23
2018-05-31T09:40:04.581Z,5.30
2018-05-31T09:42:32.065Z,6.40
2018-05-31T09:44:59.496Z,5.87
2018-05-31T09:47:26.908Z,7.03
2018-05-31T09:49:54.314Z,5.67
2018-05-31T09:52:21.718Z,6.40
2018-05-31T09:54:49.138Z,5.50
2018-05-31T09:57:16.536Z,5.70
2018-05-31T09:59:43.925Z,6.03
2018-05-31T10:02:11.324Z,6.30
2018-05-31T10:04:38.712Z,6.80
2018-05-31T10:07:06.100Z,7.23
2018-05-31T10:09:33.493Z,6.93
2018-05-31T10:12:00.884Z,6.00
2018-05-31T10:14:28.267Z,6.20
2018-05-31T10:16:55.642Z,7.13
2018-05-31T10:19:23.035Z,7.30
2018-05-31T10:21:50.420Z,7.27
2018-05-31T10:24:17.807Z,5.90
2018-05-31T10:26:45.193Z,7.10
2018-05-31T10:29:12.579Z,7.20
2018-05-31T10:31:39.967Z,6.83
2018-05-31T10:34:07.344Z,6.60
2018-05-31T10:36:34.723Z,7.20
2018-05-31T10:39:02.114Z,6.50
2018-05-31T10:41:29.504Z,7.07
2018-05-31T10:43:56.887Z,6.53
2018-05-31T10:46:24.318Z,7.07
2018-05-31T10:48:51.676Z,7.03
2018-05-31T10:51:19.075Z,6.70
2018-05-31T10:53:46.500Z,7.60
2018-05-31T10:56:13.880Z,7.47
2018-05-31T10:58:41.271Z,6.93
2018-05-31T11:01:08.686Z,6.30
2018-05-31T11:03:36.075Z,6.77
2018-05-31T11:06:03.486Z,7.87
2018-05-31T11:08:30.861Z,6.30
2018-05-31T11:10:58.262Z,7.07
2018-05-31T11:13:25.647Z,7.00
2018-05-31T11:15:53.079Z,6.80
2018-05-31T11:18:20.456Z,6.80
2018-05-31T11:20:47.858Z,7.57
2018-05-31T11:23:15.231Z,7.10
2018-05-31T11:25:42.619Z,6.67
2018-05-31T11:28:10.020Z,6.20
2018-05-31T11:30:37.410Z,7.43
2018-05-31T11:33:04.793Z,8.23
2018-05-31T11:35:32.183Z,6.77
2018-05-31T11:37:59.566Z,6.40
2018-05-31T11:40:26.957Z,7.20
2018-05-31T11:42:54.393Z,6.90
2018-05-31T11:45:21.785Z,7.27
2018-05-31T11:47:49.161Z,6.43
2018-05-31T11:50:16.542Z,7.73
2018-05-31T11:52:43.922Z,6.73
2018-05-31T11:55:11.326Z,7.10
2018-05-31T11:57:38.699Z,6.90
2018-05-31T12:00:06.088Z,6.10
2018-05-31T12:02:33.493Z,7.73
2018-05-31T12:05:00.901Z,6.00
2018-05-31T12:07:28.280Z,6.00
2018-05-31T12:09:55.674Z,6.47
2018-05-31T12:12:23.049Z,6.03
2018-05-31T12:14:50.609Z,7.07
2018-05-31T12:17:17.995Z,7.13
2018-05-31T12:19:45.472Z,6.90
2018-05-31T12:22:12.869Z,6.07
2018-05-31T12:24:40.243Z,6.17
2018-05-31T12:27:07.635Z,6.07
2018-05-31T12:29:35.011Z,5.77
2018-05-31T12:32:02.404Z,5.50
2018-05-31T12:34:29.784Z,5.20
2018-05-31T12:36:57.207Z,5.10
2018-05-31T12:39:24.572Z,6.77
2018-05-31T12:41:52.018Z,4.73
2018-05-31T12:44:19.390Z,5.40
2018-05-31T12:46:46.796Z,5.50
2018-05-31T12:49:14.188Z,5.13
2018-05-31T12:51:41.572Z,5.00
2018-05-31T12:54:08.965Z,5.20
2018-05-31T12:56:36.354Z,5.57
2018-05-31T12:59:03.738Z,5.03
2018-05-31T13:01:31.125Z,5.60
2018-05-31T13:03:58.500Z,5.10
2018-05-31T13:06:25.949Z,4.63
2018-05-31T13:08:53.372Z,5.23
2018-05-31T13:11:20.780Z,5.30
2018-05-31T13:13:48.172Z,4.50
2018-05-31T13:16:15.573Z,4.00
2018-05-31T13:18:42.975Z,3.90
2018-05-31T13:21:10.356Z,4.67
2018-05-31T13:23:37.748Z,3.83
2018-05-31T13:26:05.132Z,3.83
2018-05-31T13:28:32.515Z,3.47
2018-05-31T13:30:59.908Z,4.27
2018-05-31T13:33:27.322Z,3.40
2018-05-31T13:35:54.691Z,3.73
2018-05-31T13:38:22.070Z,3.57
2018-05-31T13:40:49.460Z,3.80
2018-05-31T13:43:16.836Z,3.60
2018-05-31T13:45:44.221Z,3.60
2018-05-31T13:48:11.603Z,3.50
2018-05-31T13:50:39.128Z,3.50
2018-05-31T13:53:06.505Z,3.30
2018-05-31T13:55:33.890Z,3.93
2018-05-31T13:58:01.293Z,4.70
2018-05-31T14:00:28.680Z,3.00
2018-05-31T14:02:56.059Z,3.07
2018-05-31T14:05:23.435Z,3.13
2018-05-31T14:07:50.813Z,3.10
2018-05-31T14:10:18.197Z,3.07
2018-05-31T14:12:45.576Z,3.17
2018-05-31T14:15:12.964Z,4.47
2018-05-31T14:17:40.373Z,2.63
2018-05-31T14:20:07.759Z,2.90
2018-05-31T14:22:35.145Z,3.33
2018-05-31T14:25:02.527Z,2.70
2018-05-31T14:27:29.921Z,3.53
2018-05-31T14:29:57.299Z,3.60
2018-05-31T14:32:24.695Z,3.07
2018-05-31T14:34:52.081Z,3.67
2018-05-31T14:37:19.495Z,3.30
2018-05-31T14:39:46.873Z,3.70
2018-05-31T14:42:14.270Z,3.70
2018-05-31T14:44:41.715Z,3.53
2018-05-31T14:47:09.146Z,4.50
2018-05-31T14:49:36.560Z,3.80
2018-05-31T14:52:03.948Z,4.30
2018-05-31T14:54:31.340Z,3.80
2018-05-31T14:56:58.747Z,3.73
2018-05-31T14:59:26.195Z,3.90
2018-05-31T15:01:53.611Z,3.37
2018-05-31T15:04:21.031Z,3.83
2018-05-31T15:06:48.452Z,3.33
2018-05-31T15:09:15.844Z,4.20
2018-05-31T15:11:43.266Z,5.10
2018-05-31T15:14:10.835Z,4.40
2018-05-31T15:16:38.245Z,4.17
2018-05-31T15:19:05.819Z,4.77
2018-05-31T15:21:33.313Z,5.70
2018-05-31T15:24:00.716Z,6.27
2018-05-31T15:26:28.127Z,6.97
2018-05-31T15:28:55.520Z,8.07
2018-05-31T15:31:22.987Z,5.60
2018-05-31T15:33:50.438Z,4.40
2018-05-31T15:36:17.867Z,3.97
2018-05-31T15:38:45.282Z,4.40
2018-05-31T15:41:12.684Z,3.90
2018-05-31T15:43:40.082Z,4.23
2018-05-31T15:46:07.513Z,5.40
2018-05-31T15:48:34.944Z,3.87
2018-05-31T15:51:02.338Z,4.07
2018-05-31T15:53:29.756Z,3.87
2018-05-31T15:55:57.135Z,4.33
2018-05-31T15:58:24.550Z,3.70
2018-05-31T16:00:51.980Z,4.37
2018-05-31T16:03:19.381Z,5.00
2018-05-31T16:05:46.795Z,3.67
2018-05-31T16:08:14.995Z,3.60
2018-05-31T16:10:43.324Z,3.93
2018-05-31T16:13:10.701Z,3.30
2018-05-31T16:15:38.074Z,2.60
2018-05-31T16:18:05.476Z,3.70
2018-05-31T16:20:32.868Z,2.60
2018-05-31T16:23:00.272Z,3.37
2018-05-31T16:25:27.655Z,3.40
2018-05-31T16:27:55.048Z,3.13
2018-05-31T16:30:22.427Z,2.87
2018-05-31T16:32:49.804Z,3.80
2018-05-31T16:35:17.193Z,3.90
2018-05-31T16:37:44.567Z,3.10
2018-05-31T16:40:11.959Z,3.40
2018-05-31T16:42:39.351Z,6.07
2018-05-31T16:45:06.732Z,5.43
2018-05-31T16:47:34.131Z,5.23
2018-05-31T16:50:01.508Z,5.27
2018-05-31T16:52:28.887Z,6.60
2018-05-31T16:54:56.275Z,4.07
2018-05-31T16:57:23.659Z,3.97
2018-05-31T16:59:51.035Z,2.60
2018-05-31T17:02:18.428Z,5.37
2018-05-31T17:04:45.862Z,5.50
2018-05-31T17:07:13.195Z,11.90
2018-05-31T17:09:40.589Z,21.43
2018-05-31T17:12:07.975Z,4.00
2018-05-31T17:14:35.361Z,4.70
2018-05-31T17:17:02.739Z,4.77
2018-05-31T17:19:30.117Z,8.97
2018-05-31T17:21:57.759Z,2.83
2018-05-31T17:24:25.129Z,4.10
2018-05-31T17:26:52.539Z,3.30
2018-05-31T17:29:19.925Z,2.90
2018-05-31T17:31:47.336Z,3.70
2018-05-31T17:34:14.712Z,3.30
2018-05-31T17:36:42.163Z,3.57
2018-05-31T17:39:09.528Z,3.40
2018-05-31T17:41:36.940Z,3.53
2018-05-31T17:44:04.326Z,3.40
2018-05-31T17:46:31.723Z,2.73
2018-05-31T17:48:59.109Z,3.30
2018-05-31T17:51:26.499Z,3.23
2018-05-31T17:53:53.870Z,4.07
2018-05-31T17:56:21.263Z,3.80
2018-05-31T17:59:39.303Z,3.60
2018-05-31T18:02:06.904Z,6.00
2018-05-31T18:04:34.287Z,3.53
2018-05-31T18:07:01.765Z,3.63
2018-05-31T18:09:29.151Z,3.77
2018-05-31T18:11:56.561Z,4.30
2018-05-31T18:14:24.052Z,3.90
2018-05-31T18:16:51.446Z,4.13
2018-05-31T18:19:19.027Z,3.77
2018-05-31T18:21:46.520Z,4.13
2018-05-31T18:24:13.929Z,5.47
2018-05-31T18:26:41.360Z,4.40
2018-05-31T18:29:08.735Z,4.30
2018-05-31T18:31:36.145Z,3.90
2018-05-31T18:34:04.414Z,3.50
2018-05-31T18:36:31.838Z,3.97
2018-05-31T18:38:59.595Z,3.50
2018-05-31T18:41:27.473Z,4.07
2018-05-31T18:43:55.175Z,3.67
2018-05-31T18:46:22.603Z,4.37
2018-05-31T18:48:50.008Z,3.63
2018-05-31T18:51:20.251Z,5.53
2018-05-31T18:53:47.627Z,4.70
2018-05-31T18:56:15.009Z,4.80
2018-05-31T18:58:42.395Z,3.93
2018-05-31T19:01:09.768Z,4.77
2018-05-31T19:03:37.156Z,5.67
2018-05-31T19:06:04.540Z,4.80
2018-05-31T19:08:31.940Z,4.13
2018-05-31T19:10:59.379Z,4.47
2018-05-31T19:13:32.292Z,5.27
2018-05-31T19:15:59.805Z,4.67
2018-05-31T19:18:32.751Z,4.17
2018-05-31T19:21:00.365Z,5.07
2018-05-31T19:23:27.879Z,5.10
2018-05-31T19:25:55.270Z,4.97
2018-05-31T19:28:22.701Z,4.60
2018-05-31T19:30:55.647Z,4.20
2018-05-31T19:33:23.250Z,4.47
2018-05-31T19:35:56.197Z,5.03
2018-05-31T19:38:23.637Z,4.83
2018-05-31T19:40:51.010Z,4.77
2018-05-31T19:43:23.994Z,5.60
2018-05-31T19:45:51.397Z,6.30
2018-05-31T19:48:18.807Z,5.30
2018-05-31T19:50:46.227Z,5.60
2018-05-31T19:53:19.258Z,5.43
2018-05-31T19:55:46.836Z,4.60
2018-05-31T19:58:19.964Z,5.30
2018-05-31T20:00:53.083Z,5.53
2018-05-31T20:03:26.068Z,5.17
2018-05-31T20:05:53.466Z,4.73
2018-05-31T20:08:20.898Z,5.80
2018-05-31T20:10:48.354Z,6.20
2018-05-31T20:13:15.846Z,5.17
2018-05-31T20:15:43.522Z,5.00
2018-05-31T20:18:10.958Z,5.97
2018-05-31T20:20:38.372Z,5.87
2018-05-31T20:23:05.798Z,5.50
2018-05-31T20:25:33.297Z,5.57
2018-05-31T20:28:00.805Z,6.10
2018-05-31T20:30:29.979Z,6.40
2018-05-31T20:32:57.428Z,4.87
2018-05-31T20:35:24.865Z,4.73
2018-05-31T20:37:52.251Z,5.50
2018-05-31T20:40:19.761Z,5.33
2018-05-31T20:42:47.152Z,5.77
2018-05-31T20:45:14.544Z,5.07
2018-05-31T20:47:41.973Z,5.43
2018-05-31T20:50:09.383Z,5.40
2018-05-31T20:52:36.822Z,5.80
2018-05-31T20:55:04.257Z,5.40
2018-05-31T20:57:31.668Z,5.80
2018-05-31T20:59:59.174Z,5.80
2018-05-31T21:02:26.457Z,5.00
2018-05-31T21:04:53.847Z,6.23
2018-05-31T21:07:21.244Z,5.00
2018-05-31T21:09:48.653Z,6.10
2018-05-31T21:12:16.037Z,5.63
2018-05-31T21:14:43.921Z,5.47
2018-05-31T21:17:11.351Z,6.07
2018-05-31T21:19:38.753Z,5.97
2018-05-31T21:22:06.736Z,5.33
2018-05-31T21:24:34.950Z,6.47
2018-05-31T21:27:02.352Z,5.07
2018-05-31T21:29:29.776Z,6.67
2018-05-31T21:31:57.228Z,6.67
2018-05-31T21:34:24.655Z,5.97
2018-05-31T21:36:52.099Z,5.70
2018-05-31T21:39:19.537Z,5.90
2018-05-31T21:41:46.941Z,5.67
2018-05-31T21:44:14.374Z,5.80
2018-05-31T21:46:41.821Z,5.83
2018-05-31T21:49:09.226Z,7.07
2018-05-31T21:51:36.627Z,6.13
2018-05-31T21:54:04.021Z,6.23
2018-05-31T21:56:31.508Z,5.87
2018-05-31T21:58:59.002Z,6.70
2018-05-31T22:01:26.429Z,5.83
2018-05-31T22:03:53.920Z,6.50
2018-05-31T22:06:21.385Z,6.27
2018-05-31T22:08:48.847Z,6.50
2018-05-31T22:11:16.266Z,6.13
2018-05-31T22:13:43.656Z,5.83
2018-05-31T22:16:11.083Z,5.40
2018-05-31T22:18:38.515Z,5.83
2018-05-31T22:21:05.909Z,5.60
2018-05-31T22:23:33.297Z,6.17
2018-05-31T22:26:00.691Z,5.37
2018-05-31T22:28:28.076Z,6.07
2018-05-31T22:30:55.467Z,5.97
2018-05-31T22:33:22.862Z,6.63
2018-05-31T22:35:50.294Z,6.70
2018-05-31T22:38:18.556Z,5.40
2018-05-31T22:40:45.982Z,5.80
2018-05-31T22:43:13.502Z,5.87
2018-05-31T22:45:40.943Z,5.70
2018-05-31T22:48:08.769Z,5.37
2018-05-31T22:50:36.263Z,5.90
2018-05-31T22:53:03.693Z,5.90
2018-05-31T22:55:31.083Z,5.50
2018-05-31T22:57:58.471Z,5.83
2018-05-31T23:00:25.843Z,6.10
2018-05-31T23:02:53.325Z,5.00
2018-05-31T23:05:20.654Z,5.57
2018-05-31T23:07:48.102Z,5.43
2018-05-31T23:10:15.476Z,6.20
2018-05-31T23:12:42.856Z,5.60
2018-05-31T23:15:10.278Z,5.83
2018-05-31T23:17:37.666Z,5.20
2018-05-31T23:20:05.055Z,5.97
2018-05-31T23:22:32.440Z,6.40
2018-05-31T23:24:59.830Z,6.20
2018-05-31T23:27:27.211Z,6.10
2018-05-31T23:29:54.612Z,5.97
2018-05-31T23:32:21.980Z,6.23
2018-05-31T23:34:49.364Z,6.40
2018-05-31T23:37:16.761Z,6.67
2018-05-31T23:39:44.143Z,5.40
2018-05-31T23:42:11.537Z,6.30
2018-05-31T23:44:38.922Z,5.90
2018-05-31T23:47:06.303Z,6.50
2018-05-31T23:49:33.721Z,6.67
2018-05-31T23:52:01.071Z,6.00
2018-05-31T23:54:28.476Z,6.30
2018-05-31T23:56:55.856Z,6.20
2018-05-31T23:59:23.258Z,6.43
